Flight Track Log - Related Links

Times and Time Zones

All times are in EDT time to prevent confusion due to time zone crossing. See the NKS434 flight status page for this flight to view local times or setup timezone preferences in your user account.

Time Position Orientation Groundspeed Altitude Reporting Facility
EDT Latitude Longitude Course Direction KTS MPH feet Rate Location/Type
Sun 03:42:00 AM 14.0237 -85.4191 20° North  Level FlightAware Approximate
Sun 03:43:00 AM 14.1425 -85.3714 24° Northeast  Level FlightAware Approximate
Sun 03:44:00 AM 14.2590 -85.3177 24° Northeast  Level FlightAware Approximate
Sun 03:45:00 AM 14.3766 -85.2669 20° North  Level FlightAware Approximate
Sun 03:46:00 AM 14.4963 -85.2213 20° North  Level FlightAware Approximate
Sun 03:47:00 AM 14.6160 -85.1757 20° North  Level FlightAware Approximate
Sun 03:48:00 AM 14.7353 -85.1292 21° North  Level FlightAware Approximate
Sun 03:49:00 AM 14.8543 -85.0816 21° North  Level FlightAware Approximate
Sun 03:50:00 AM 14.9733 -85.0340 21° North  Level FlightAware Approximate
Sun 03:51:00 AM 15.0924 -84.9865 21° North  Level FlightAware Approximate
Sun 03:52:00 AM 15.2114 -84.9389 21° North  Level FlightAware Approximate
Sun 03:53:00 AM 15.3304 -84.8913 21° North  Level FlightAware Approximate
Sun 03:54:00 AM 15.4494 -84.8436 21° North  Level FlightAware Approximate
Sun 03:55:00 AM 15.5684 -84.7959 21° North  Level FlightAware Approximate
Sun 03:56:00 AM 15.6874 -84.7481 21° North  Level FlightAware Approximate
Sun 03:57:00 AM 15.8063 -84.7002 21° North  Level FlightAware Approximate
Sun 03:58:00 AM 15.9253 -84.6523 21° North  Level FlightAware Approximate
Sun 03:59:00 AM 16.0443 -84.6043 21° North  Level FlightAware Approximate
Sun 04:00:00 AM 16.1632 -84.5563 21° North  Level FlightAware Approximate
Sun 04:01:00 AM 16.2821 -84.5082 21° North  Level FlightAware Approximate
Sun 04:02:00 AM 16.4011 -84.4601 21° North  Level FlightAware Approximate
Sun 04:03:00 AM 16.5200 -84.4119 21° North  Level FlightAware Approximate
Sun 04:04:00 AM 16.6388 -84.3636 21° North  Level FlightAware Approximate
Sun 04:05:00 AM 16.7577 -84.3153 21° North  Level FlightAware Approximate
Sun 04:06:00 AM 16.8766 -84.2670 21° North  Level FlightAware Approximate
Sun 04:07:00 AM 16.9955 -84.2185 21° North  Level FlightAware Approximate
Sun 04:08:00 AM 17.1142 -84.1697 21° North  Level FlightAware Approximate
Sun 04:09:00 AM 17.2329 -84.1208 21° North  Level FlightAware Approximate
Sun 04:10:00 AM 17.3516 -84.0718 21° North  Level FlightAware Approximate
Sun 04:11:00 AM 17.4703 -84.0227 22° Northeast  Level FlightAware Approximate
Sun 04:12:00 AM 17.5889 -83.9736 22° Northeast  Level FlightAware Approximate
Sun 04:13:00 AM 17.7076 -83.9244 22° Northeast  Level FlightAware Approximate
Sun 04:14:00 AM 17.8262 -83.8752 22° Northeast  Level FlightAware Approximate
Sun 04:15:00 AM 17.9449 -83.8259 22° Northeast  Level FlightAware Approximate
Sun 04:16:00 AM 18.0635 -83.7765 22° Northeast  Level FlightAware Approximate
Sun 04:17:00 AM 18.1821 -83.7271 22° Northeast  Level FlightAware Approximate
Sun 04:18:00 AM 18.3007 -83.6776 22° Northeast  Level FlightAware Approximate
Sun 04:19:00 AM 18.4194 -83.6283 21° North  Level FlightAware Approximate
Sun 04:20:00 AM 18.5382 -83.5794 21° North  Level FlightAware Approximate
Sun 04:21:00 AM 18.6571 -83.5304 21° North  Level FlightAware Approximate
Sun 04:22:00 AM 18.7759 -83.4814 21° North  Level FlightAware Approximate
Sun 04:23:00 AM 18.8947 -83.4323 21° North  Level FlightAware Approximate
Sun 04:24:00 AM 19.0135 -83.3831 21° North  Level FlightAware Approximate
Sun 04:25:00 AM 19.1322 -83.3338 21° North  Level FlightAware Approximate
Sun 04:26:00 AM 19.2510 -83.2845 21° North  Level FlightAware Approximate
Sun 04:27:00 AM 19.3698 -83.2351 21° North  Level FlightAware Approximate
Sun 04:28:00 AM 19.4885 -83.1856 21° North  Level FlightAware Approximate
Sun 04:29:00 AM 19.6072 -83.1360 21° North  Level FlightAware Approximate
Sun 04:30:00 AM 19.7259 -83.0864 21° North  Level FlightAware Approximate
Sun 04:31:00 AM 19.8443 -83.0359 22° Northeast  Level FlightAware Approximate
Sun 04:32:00 AM 19.9627 -82.9852 22° Northeast  Level FlightAware Approximate
Sun 04:33:00 AM 20.0810 -82.9345 22° Northeast  Level FlightAware Approximate
Sun 04:34:00 AM 20.1993 -82.8836 22° Northeast  Level FlightAware Approximate
Sun 04:35:00 AM 20.3172 -82.8316 22° Northeast  Level FlightAware Approximate
Sun 04:36:00 AM 20.4350 -82.7795 23° Northeast  Level FlightAware Approximate
Sun 04:37:00 AM 20.5529 -82.7273 23° Northeast  Level FlightAware Approximate
Sun 04:38:00 AM 20.6707 -82.6750 23° Northeast  Level FlightAware Approximate
Sun 04:39:00 AM 20.7885 -82.6227 23° Northeast  Level FlightAware Approximate
Sun 04:39:32 AM 20.7459 -82.2201 15° North 455 524 34,000  Level FlightAware ADS-B (KEYW)
Sun 04:39:59 AM 20.8005 -82.2036 15° North 455 524 34,000  Level FlightAware ADS-B (KEYW)
Sun 04:42:42 AM 21.1325 -82.1034 15° North 457 526 34,000  Level FlightAware ADS-B (KEYW)
Sun 04:42:46 AM 21.1405 -82.1010 15° North 457 526 34,000  Level FlightAware ADS-B (KEYW)
Sun 04:45:07 AM 21.4227 -82.0154 15° North 460 529 34,000  Level FlightAware ADS-B (KEYW)
Sun 04:45:37 AM 21.4905 -81.9948 15° North 460 529 34,000  Level FlightAware ADS-B (KEYW)
Sun 04:46:06 AM 21.5495 -81.9768 15° North 461 531 34,000  Level FlightAware ADS-B (KEYW)
Sun 04:46:37 AM 21.6149 -81.9570 15° North 460 529 34,000  Level FlightAware ADS-B (KEYW)
Sun 04:47:07 AM 21.6766 -81.9382 15° North 460 529 34,000  Level FlightAware ADS-B (KEYW)
Sun 04:47:38 AM 21.7395 -81.9190 15° North 459 528 34,000  Level FlightAware ADS-B (KEYW)
Sun 04:47:58 AM 21.7788 -81.9070 15° North 458 527 34,000  Level FlightAware ADS-B (KEYW)
Sun 04:48:37 AM 21.8617 -81.8816 15° North 458 527 34,000  Level FlightAware ADS-B (KEYW)
Sun 04:49:07 AM 21.9211 -81.8634 15° North 458 527 34,000  Level FlightAware ADS-B (KEYW)
Sun 04:49:37 AM 21.9838 -81.8442 15° North 458 527 34,000  Level FlightAware ADS-B (KEYW)
Sun 04:50:07 AM 22.0458 -81.8252 15° North 458 527 34,000  Level FlightAware ADS-B (KEYW)
Sun 04:50:36 AM 22.1038 -81.8074 15° North 458 527 34,000  Level FlightAware ADS-B (KEYW)
Sun 04:51:03 AM 22.1584 -81.7907 15° North 459 528 34,000  Level FlightAware ADS-B (KEYW)
Sun 04:51:37 AM 22.2170 -81.7728 15° North 458 527 34,000  Level FlightAware ADS-B (KEYW)
Sun 04:52:06 AM 22.2856 -81.7516 16° North 458 527 34,000  Level FlightAware ADS-B (KEYW)
Sun 04:52:37 AM 22.3479 -81.7324 16° North 459 528 34,000  Level FlightAware ADS-B (KEYW)
Sun 04:53:07 AM 22.4138 -81.7121 15° North 460 529 34,000  Level FlightAware ADS-B (KEYW)
Sun 04:53:34 AM 22.4671 -81.6957 15° North 460 529 34,000  Level FlightAware ADS-B (KEYW)
Sun 04:54:07 AM 22.5380 -81.6738 16° North 459 528 34,000  Level FlightAware ADS-B (KEYW)
Sun 04:54:38 AM 22.5996 -81.6547 16° North 458 527 34,000  Level FlightAware ADS-B (KEYW)
Sun 04:55:07 AM 22.6602 -81.6360 16° North 458 527 34,000  Level FlightAware ADS-B (KEYW)
Sun 04:55:37 AM 22.7211 -81.6171 16° North 458 527 34,000  Level FlightAware ADS-B (KEYW)
Sun 04:56:07 AM 22.7813 -81.5984 16° North 458 527 34,000  Level FlightAware ADS-B (KEYW)
Sun 04:56:37 AM 22.8434 -81.5792 16° North 458 527 34,000  Level FlightAware ADS-B (KEYW)
Sun 04:57:07 AM 22.9054 -81.5600 16° North 458 527 34,000  Level FlightAware ADS-B (KEYW)
Sun 04:57:37 AM 22.9657 -81.5412 16° North 458 527 34,000  Level FlightAware ADS-B (KEYW)
Sun 04:58:07 AM 23.0279 -81.5219 16° North 458 527 34,000  Level FlightAware ADS-B (KEYW)
Sun 04:58:38 AM 23.0885 -81.5030 16° North 458 527 34,000  Level FlightAware ADS-B (KEYW)
Sun 04:59:07 AM 23.1483 -81.4843 16° North 457 526 34,000  Level FlightAware ADS-B (KEYW)
Sun 04:59:37 AM 23.2127 -81.4643 16° North 458 527 34,000  Level FlightAware ADS-B (KEYW)
Sun 05:00:08 AM 23.2736 -81.4454 16° North 457 526 34,000  Level FlightAware ADS-B (KEYW)
Sun 05:00:37 AM 23.3341 -81.4264 16° North 457 526 34,000  Level FlightAware ADS-B (KEYW)
Sun 05:01:07 AM 23.3951 -81.4073 16° North 457 526 34,000  Level FlightAware ADS-B (KEYW)
Sun 05:01:37 AM 23.4571 -81.3878 16° North 457 526 34,000  Level FlightAware ADS-B (KEYW)
Sun 05:02:07 AM 23.5177 -81.3688 16° North 457 526 34,000  Level FlightAware ADS-B (KEYW)
Sun 05:02:37 AM 23.5777 -81.3500 16° North 458 527 34,000  Level FlightAware ADS-B (KEYW)
Sun 05:03:07 AM 23.6406 -81.3302 16° North 458 527 34,000  Level FlightAware ADS-B (KEYW)
Sun 05:03:37 AM 23.7005 -81.3114 16° North 457 526 34,000  Level FlightAware ADS-B (KEYW)
Sun 05:04:07 AM 23.7624 -81.2920 16° North 458 527 34,000  Level FlightAware ADS-B (KEYW)
Sun 05:04:37 AM 23.8229 -81.2729 16° North 458 527 34,000  Level FlightAware ADS-B (KEYW)
Sun 05:05:07 AM 23.8860 -81.2530 16° North 456 525 34,000  Level FlightAware ADS-B (KEYW)
Sun 05:05:37 AM 23.9451 -81.2343 16° North 456 525 34,000  Level FlightAware ADS-B (KEYW)
Sun 05:06:07 AM 24.0070 -81.2163 12° North 456 525 34,000  Level FlightAware ADS-B (KEYW)
Sun 05:06:47 AM 24.0906 -81.2001 10° North 457 526 34,000  Level FlightAware ADS-B (KEYW)
Sun 05:07:17 AM 24.1535 -81.1874 10° North 457 526 34,000 -185 Level FlightAware ADS-B (KEYW)
Sun 05:07:52 AM 24.2262 -81.1726 10° North 458 527 33,800 -1,108 Descending FlightAware ADS-B (KEYW)
Sun 05:08:22 AM 24.2882 -81.1603 10° North 455 524 32,800 -2,000 Descending FlightAware ADS-B (KEYW)
Sun 05:08:52 AM 24.3510 -81.1478 10° North 451 519 31,800 -2,000 Descending FlightAware ADS-B (KEYW)
Sun 05:09:22 AM 24.4112 -81.1358 10° North 448 516 30,800 -2,000 Descending FlightAware ADS-B (KEYW)
Sun 05:09:52 AM 24.4721 -81.1237 10° North 443 510 29,800 -2,100 Descending FlightAware ADS-B (KEYW)
Sun 05:10:22 AM 24.5333 -81.1114 10° North 439 505 28,700 -2,100 Descending FlightAware ADS-B (KEYW)
Sun 05:10:52 AM 24.5941 -81.0993 10° North 435 501 27,700 -2,000 Descending FlightAware ADS-B (KEYW)
Sun 05:11:22 AM 24.6539 -81.0873 10° North 430 495 26,700 -1,967 Descending FlightAware ADS-B (KEYW)
Sun 05:11:53 AM 24.7110 -81.0759 10° North 426 490 25,700 -2,034 Descending FlightAware ADS-B (KEYW)
Sun 05:12:21 AM 24.7679 -81.0644 10° North 422 486 24,700 -2,034 Descending FlightAware ADS-B (KEYW)
Sun 05:12:52 AM 24.8268 -81.0526 10° North 417 480 23,700 -1,967 Descending FlightAware ADS-B (KEYW)
Sun 05:13:22 AM 24.8840 -81.0412 10° North 412 474 22,700 -2,000 Descending FlightAware ADS-B (KEYW)
Sun 05:13:52 AM 24.9391 -81.0302 10° North 409 471 21,700 -2,000 Descending FlightAware ADS-B (KEYW)
Sun 05:14:22 AM 24.9966 -81.0186 10° North 405 466 20,700 -2,000 Descending FlightAware ADS-B (KEYW)
Sun 05:14:52 AM 25.0493 -81.0079 10° North 397 457 19,700 -1,966 Descending FlightAware ADS-B (KEYW)
Sun 05:15:20 AM 25.0992 -80.9979 10° North 389 448 18,800 -1,900 Descending FlightAware ADS-B (KEYW)
Sun 05:15:52 AM 25.1553 -80.9866 10° North 379 436 17,800 -1,935 Descending FlightAware ADS-B (KEYW)
Sun 05:16:22 AM 25.2079 -80.9761 10° North 370 426 16,800 -1,900 Descending FlightAware ADS-B (KEYW)
Sun 05:16:52 AM 25.2583 -80.9659 10° North 359 413 15,900 -1,700 Descending FlightAware ADS-B (KEYW)
Sun 05:17:22 AM 25.3066 -80.9561 10° North 351 404 15,100 -1,600 Descending FlightAware ADS-B (KEYW)
Sun 05:17:52 AM 25.3512 -80.9471 10° North 343 395 14,300 -1,700 Descending FlightAware ADS-B (KEYW)
Sun 05:18:22 AM 25.3988 -80.9375 10° North 336 387 13,400 -1,700 Descending FlightAware ADS-B (KEYW)
Sun 05:18:52 AM 25.4457 -80.9279 10° North 327 376 12,600 -1,500 Descending FlightAware ADS-B (KEYW)
Sun 05:19:02 AM 25.4593 -80.9234 21° North 326 375 12,400 -1,143 Descending FlightAware ADS-B (KEYW)
Sun 05:19:13 AM 25.4733 -80.9139 37° Northeast 329 379 12,200 -1,050 Descending FlightAware ADS-B (KEYW)
Sun 05:19:42 AM 25.5083 -80.8828 38° Northeast 327 376 11,700 -1,119 Descending FlightAware ADS-B (KEYW)
Sun 05:20:12 AM 25.5442 -80.8512 38° Northeast 324 373 11,100 -600 Descending FlightAware ADS-B (KEYW)
Sun 05:21:02 AM 25.6025 -80.8003 38° Northeast 321 369 10,900 -156 Descending FlightAware ADS-B (KEYW)
Sun 05:21:29 AM 25.6342 -80.7727 38° Northeast 320 368 10,900  Level FlightAware ADS-B (KEYW)
Sun 05:22:02 AM 25.6718 -80.7397 38° Northeast 320 368 10,900  Level FlightAware ADS-B (KEYW)
Sun 05:22:32 AM 25.7071 -80.7087 38° Northeast 320 368 10,900 -508 Level FlightAware ADS-B (KEYW)
Sun 05:23:01 AM 25.7411 -80.6788 38° Northeast 313 360 10,400 -828 Descending FlightAware ADS-B (KEYW)
Sun 05:23:30 AM 25.7695 -80.6538 38° Northeast 299 344 10,100 -824 Descending FlightAware ADS-B (KEYW)
Sun 05:23:52 AM 25.7957 -80.6307 38° Northeast 284 327 9,700 -1,167 Descending FlightAware ADS-B (KEYW)
Sun 05:24:06 AM 25.8092 -80.6189 38° Northeast 284 327 9,400 -1,600 Descending FlightAware ADS-B (KEYW)
Sun 05:24:22 AM 25.8252 -80.6049 38° Northeast 282 325 8,900 -1,610 Descending FlightAware ADS-B (KEYW)
Sun 05:24:47 AM 25.8520 -80.5811 38° Northeast 282 325 8,300 -1,500 Descending FlightAware ADS-B (KEYW)
Sun 05:25:02 AM 25.8682 -80.5669 38° Northeast 278 320 7,900 -1,600 Descending FlightAware ADS-B (KEYW)
Sun 05:25:17 AM 25.8833 -80.5535 38° Northeast 277 319 7,500 -1,154 Descending FlightAware ADS-B (KEYW)
Sun 05:25:54 AM 25.9125 -80.5286 38° Northeast 277 319 6,900 -1,308 Descending Miami Center
Sun 05:26:35 AM 25.9547 -80.4908 39° Northeast 277 319 5,800 -1,500 Descending Miami Center
Sun 05:26:54 AM 25.9725 -80.4756 38° Northeast 268 308 5,400 -1,279 Descending Miami Center
Sun 05:27:36 AM 26.0131 -80.4389 39° Northeast 267 307 4,500 -1,000 Descending Miami Center
Sun 05:27:48 AM 26.0236 -80.4286 41° Northeast 260 299 4,500 -600 Level Miami Center
Sun 05:28:36 AM 26.0636 -80.3936 38° Northeast 236 272 3,900 -800 Descending Miami Center
Sun 05:28:48 AM 26.0728 -80.3836 44° Northeast 221 254 3,700 -1,082 Descending Miami Center
Sun 05:29:37 AM 26.0775 -80.3358 84° East 202 232 2,800 -968 Descending Miami Center
Sun 05:29:50 AM 26.0764 -80.3236 96° East 189 217 2,700 -1,000 Descending Miami Center
Sun 05:30:37 AM 26.0775 -80.2769 88° East 195 224 1,800 -1,034 Descending Miami Center
Sun 05:30:48 AM 26.0761 -80.2656 98° East 188 216 1,700 -800 Descending Miami Center
Sun 05:31:37 AM 26.0772 -80.2250 88° East 171 197 1,000 -774 Descending Miami Center
Sun 05:31:50 AM 26.0769 -80.2169 92° East 142 163 900 -677 Descending Miami Center
Sun 05:32:39 AM 26.0772 -80.1822 89° East 142 163 300 -735 Descending Miami Center

Login

Don't have an account? Register now (free) for customized features, flight alerts, and more!